createdAt,value
2019-06-15T00:00:31.863Z,23.62
2019-06-15T00:03:37.984Z,23.33
2019-06-15T00:06:44.064Z,23.26
2019-06-15T00:09:50.414Z,23.16
2019-06-15T00:12:56.742Z,22.91
2019-06-15T00:16:04.344Z,22.44
2019-06-15T00:19:10.816Z,22.50
2019-06-15T00:22:16.949Z,22.54
2019-06-15T00:25:23.056Z,22.67
2019-06-15T00:28:29.465Z,22.91
2019-06-15T00:31:37.196Z,22.88
2019-06-15T00:34:43.633Z,22.72
2019-06-15T00:37:49.701Z,22.85
2019-06-15T00:40:55.881Z,22.93
2019-06-15T00:44:02.525Z,22.57
2019-06-15T00:47:08.745Z,22.73
2019-06-15T00:50:14.965Z,22.96
2019-06-15T00:53:24.027Z,23.41
2019-06-15T00:56:30.115Z,23.50
2019-06-15T00:59:36.288Z,23.50
2019-06-15T01:02:42.480Z,23.42
2019-06-15T01:05:48.691Z,23.31
2019-06-15T01:08:54.774Z,23.22
2019-06-15T01:12:00.907Z,23.24
2019-06-15T01:15:08.409Z,23.18
2019-06-15T01:18:14.523Z,23.04
2019-06-15T01:21:20.745Z,23.23
2019-06-15T01:24:26.931Z,23.02
2019-06-15T01:27:33.021Z,23.50
2019-06-15T01:30:39.174Z,23.44
2019-06-15T01:33:45.316Z,23.62
2019-06-15T01:36:52.744Z,23.59
2019-06-15T01:39:58.865Z,23.38
2019-06-15T01:43:04.970Z,23.26
2019-06-15T01:46:12.194Z,23.29
2019-06-15T01:49:18.583Z,23.32
2019-06-15T01:52:24.671Z,23.44
2019-06-15T01:55:31.491Z,23.35
2019-06-15T01:58:38.502Z,23.27
2019-06-15T02:01:44.851Z,23.26
2019-06-15T02:04:50.988Z,23.16
2019-06-15T02:07:57.325Z,23.03
2019-06-15T02:11:03.559Z,23.17
2019-06-15T02:14:10.641Z,23.08
2019-06-15T02:17:17.974Z,23.08
2019-06-15T02:20:24.585Z,23.02
2019-06-15T02:23:30.643Z,22.77
2019-06-15T02:26:37.387Z,22.63
2019-06-15T02:29:43.513Z,22.79
2019-06-15T02:32:49.638Z,22.53
2019-06-15T02:35:56.026Z,22.64
2019-06-15T02:39:02.218Z,22.69
2019-06-15T02:42:09.694Z,22.64
2019-06-15T02:45:16.251Z,22.36
2019-06-15T02:48:22.664Z,22.48
2019-06-15T02:51:29.140Z,22.25
2019-06-15T02:54:35.535Z,22.41
2019-06-15T02:57:42.116Z,22.29
2019-06-15T03:01:00.174Z,22.31
2019-06-15T03:04:06.735Z,22.31
2019-06-15T03:07:14.144Z,22.27
2019-06-15T03:10:21.562Z,22.27
2019-06-15T03:13:28.807Z,21.89
2019-06-15T03:16:35.468Z,21.71
2019-06-15T03:19:41.841Z,22.03
2019-06-15T03:22:48.216Z,21.53
2019-06-15T03:26:05.084Z,21.50
2019-06-15T03:29:03.856Z,21.48
2019-06-15T03:32:10.227Z,21.44
2019-06-15T03:35:17.566Z,21.19
2019-06-15T03:38:23.915Z,21.29
2019-06-15T03:41:30.301Z,20.98
2019-06-15T03:44:37.081Z,21.21
2019-06-15T03:47:43.920Z,21.19
2019-06-15T03:50:50.726Z,20.87
2019-06-15T03:53:58.708Z,21.24
2019-06-15T03:57:05.901Z,21.15
2019-06-15T04:00:47.446Z,21.90
2019-06-15T04:03:54.014Z,22.14
2019-06-15T04:07:03.230Z,22.33
2019-06-15T04:10:09.710Z,22.31
2019-06-15T04:13:16.130Z,22.47
2019-06-15T04:16:22.495Z,22.78
2019-06-15T04:19:28.753Z,22.74
2019-06-15T04:22:34.904Z,22.70
2019-06-15T04:25:44.095Z,22.73
2019-06-15T04:28:49.083Z,22.89
2019-06-15T04:31:55.577Z,22.86
2019-06-15T04:35:01.834Z,22.88
2019-06-15T04:38:08.230Z,22.89
2019-06-15T04:41:14.790Z,22.84
2019-06-15T04:44:21.181Z,22.75
2019-06-15T04:47:27.650Z,22.55
2019-06-15T04:50:34.150Z,22.57
2019-06-15T04:53:40.524Z,22.67
2019-06-15T04:56:50.893Z,22.60
2019-06-15T04:59:54.831Z,22.69
2019-06-15T05:03:01.376Z,22.76
2019-06-15T05:06:07.876Z,22.87
2019-06-15T05:09:13.999Z,22.96
2019-06-15T05:12:20.120Z,23.04
2019-06-15T05:15:26.319Z,23.23
2019-06-15T05:18:32.590Z,23.27
2019-06-15T05:21:38.818Z,23.26
2019-06-15T05:24:44.943Z,23.46
2019-06-15T05:27:51.142Z,23.65
2019-06-15T05:30:57.221Z,23.83
2019-06-15T05:34:05.881Z,24.04
2019-06-15T05:37:12.236Z,24.21
2019-06-15T05:40:18.655Z,24.33
2019-06-15T05:43:24.833Z,24.39
2019-06-15T05:46:31.050Z,24.34
2019-06-15T05:49:37.139Z,24.24
2019-06-15T05:52:43.382Z,24.20
2019-06-15T05:55:49.739Z,24.10
2019-06-15T05:58:56.026Z,24.25
2019-06-15T06:02:02.621Z,24.33
2019-06-15T06:05:09.696Z,24.32
2019-06-15T06:08:15.792Z,24.41
2019-06-15T06:11:21.942Z,24.56
2019-06-15T06:14:28.146Z,24.83
2019-06-15T06:17:34.258Z,24.86
2019-06-15T06:20:40.378Z,24.98
2019-06-15T06:23:46.649Z,24.95
2019-06-15T06:26:53.078Z,24.90
2019-06-15T06:30:02.541Z,24.98
2019-06-15T06:33:08.961Z,24.91
2019-06-15T06:36:15.075Z,24.84
2019-06-15T06:39:21.215Z,24.89
2019-06-15T06:42:27.450Z,25.09
2019-06-15T06:45:33.623Z,25.30
2019-06-15T06:48:39.821Z,25.71
2019-06-15T06:51:45.927Z,25.97
2019-06-15T06:54:52.060Z,25.91
2019-06-15T06:57:58.526Z,26.18
2019-06-15T07:01:06.011Z,26.33
2019-06-15T07:04:12.205Z,26.68
2019-06-15T07:07:18.513Z,26.57
2019-06-15T07:10:24.674Z,26.63
2019-06-15T07:13:30.910Z,27.13
2019-06-15T07:16:37.022Z,27.17
2019-06-15T07:19:43.260Z,27.19
2019-06-15T07:22:49.334Z,27.83
2019-06-15T07:25:55.541Z,27.18
2019-06-15T07:29:01.788Z,27.51
2019-06-15T07:32:07.941Z,27.60
2019-06-15T07:35:14.960Z,27.56
2019-06-15T07:38:21.072Z,27.38
2019-06-15T07:41:27.160Z,27.35
2019-06-15T07:44:35.472Z,27.35
2019-06-15T07:47:44.564Z,27.43
2019-06-15T07:50:51.576Z,27.14
2019-06-15T07:53:57.739Z,27.42
2019-06-15T07:57:04.065Z,26.99
2019-06-15T08:00:12.507Z,26.88
2019-06-15T08:03:18.799Z,26.50
2019-06-15T08:06:25.002Z,26.89
2019-06-15T08:09:31.195Z,27.06
2019-06-15T08:12:37.538Z,27.20
2019-06-15T08:15:43.906Z,27.08
2019-06-15T08:18:51.164Z,26.85
2019-06-15T08:21:57.239Z,26.95
2019-06-15T08:25:03.751Z,26.93
2019-06-15T08:28:09.941Z,26.80
2019-06-15T08:31:18.778Z,26.87
2019-06-15T08:34:24.876Z,27.38
2019-06-15T08:37:31.016Z,27.57
2019-06-15T08:40:37.207Z,27.28
2019-06-15T08:43:43.292Z,27.79
2019-06-15T08:46:49.376Z,27.98
2019-06-15T08:49:55.657Z,27.91
2019-06-15T08:53:02.952Z,27.80
2019-06-15T08:56:09.261Z,27.92
2019-06-15T08:59:15.605Z,27.85
2019-06-15T09:02:22.562Z,27.93
2019-06-15T09:05:30.402Z,28.11
2019-06-15T09:08:36.905Z,28.33
2019-06-15T09:11:43.014Z,28.07
2019-06-15T09:14:49.170Z,28.67
2019-06-15T09:17:55.274Z,28.94
2019-06-15T09:21:03.177Z,28.52
2019-06-15T09:24:09.287Z,28.48
2019-06-15T09:27:15.651Z,28.89
2019-06-15T09:30:21.892Z,28.60
2019-06-15T09:33:28.055Z,28.85
2019-06-15T09:36:34.212Z,28.75
2019-06-15T09:39:40.577Z,28.88
2019-06-15T09:42:47.093Z,28.95
2019-06-15T09:45:53.663Z,28.87
2019-06-15T09:48:59.903Z,28.97
2019-06-15T09:52:07.658Z,28.77
2019-06-15T09:55:14.124Z,28.91
2019-06-15T09:58:20.272Z,29.36
2019-06-15T10:01:26.489Z,28.79
2019-06-15T10:04:32.967Z,29.24
2019-06-15T10:07:39.266Z,29.17
2019-06-15T10:10:45.498Z,28.85
2019-06-15T10:13:51.609Z,28.77
2019-06-15T10:16:57.688Z,28.60
2019-06-15T10:20:07.254Z,28.55
2019-06-15T10:23:13.419Z,28.57
2019-06-15T10:26:19.843Z,28.45
2019-06-15T10:29:38.597Z,28.53
2019-06-15T10:32:34.967Z,28.73
2019-06-15T10:35:41.041Z,28.82
2019-06-15T10:38:47.131Z,28.80
2019-06-15T10:41:53.228Z,28.76
2019-06-15T10:44:59.593Z,28.58
2019-06-15T10:48:05.878Z,28.35
2019-06-15T10:51:12.056Z,28.39
2019-06-15T10:54:18.229Z,28.35
2019-06-15T10:57:25.358Z,28.50
2019-06-15T11:00:31.692Z,28.67
2019-06-15T11:03:38.369Z,28.80
2019-06-15T11:06:45.843Z,28.56
2019-06-15T11:09:52.177Z,28.95
2019-06-15T11:12:59.457Z,29.22
2019-06-15T11:16:05.899Z,29.39
2019-06-15T11:19:12.192Z,29.58
2019-06-15T11:22:18.306Z,29.33
2019-06-15T11:25:24.568Z,29.51
2019-06-15T11:28:30.688Z,29.37
2019-06-15T11:31:36.975Z,29.10
2019-06-15T11:34:43.175Z,28.53
2019-06-15T11:37:49.263Z,28.35
2019-06-15T11:40:55.428Z,28.68
2019-06-15T11:44:01.495Z,28.52
2019-06-15T11:47:07.812Z,28.61
2019-06-15T11:50:14.307Z,28.63
2019-06-15T11:53:20.501Z,28.38
2019-06-15T11:56:26.670Z,28.43
2019-06-15T11:59:33.075Z,27.83
2019-06-15T12:02:39.254Z,27.96
2019-06-15T12:05:45.638Z,27.81
2019-06-15T12:08:52.166Z,27.41
2019-06-15T12:11:58.511Z,27.81
2019-06-15T12:15:05.940Z,27.79
2019-06-15T12:18:12.120Z,28.33
2019-06-15T12:21:19.369Z,28.98
2019-06-15T12:24:26.440Z,29.09
2019-06-15T12:27:32.562Z,28.85
2019-06-15T12:30:46.802Z,28.49
2019-06-15T12:33:47.931Z,28.37
2019-06-15T12:36:54.087Z,28.27
2019-06-15T12:40:00.655Z,28.47
2019-06-15T12:43:07.032Z,28.12
2019-06-15T12:46:14.386Z,28.69
2019-06-15T12:49:20.681Z,28.48
2019-06-15T12:52:26.968Z,28.83
2019-06-15T12:55:33.245Z,28.64
2019-06-15T12:58:42.355Z,28.33
2019-06-15T13:01:48.648Z,28.64
2019-06-15T13:04:55.059Z,28.56
2019-06-15T13:08:01.344Z,28.66
2019-06-15T13:11:09.406Z,28.91
2019-06-15T13:14:15.534Z,29.27
2019-06-15T13:17:21.635Z,28.44
2019-06-15T13:20:29.822Z,28.75
2019-06-15T13:23:36.030Z,28.53
2019-06-15T13:26:42.262Z,28.64
2019-06-15T13:29:48.364Z,29.10
2019-06-15T13:32:54.580Z,28.45
2019-06-15T13:36:00.727Z,28.19
2019-06-15T13:42:16.325Z,28.82
2019-06-15T13:45:22.518Z,28.24
2019-06-15T13:48:28.761Z,28.33
2019-06-15T13:51:35.006Z,28.33
2019-06-15T13:54:41.160Z,28.53
2019-06-15T13:57:47.359Z,28.51
2019-06-15T14:00:54.839Z,28.35
2019-06-15T14:04:00.969Z,28.20
2019-06-15T14:07:07.211Z,28.20
2019-06-15T14:10:15.554Z,28.52
2019-06-15T14:13:22.219Z,28.50
2019-06-15T14:16:28.696Z,28.44
2019-06-15T14:19:35.003Z,28.09
2019-06-15T14:22:41.087Z,28.20
2019-06-15T14:25:47.337Z,28.48
2019-06-15T14:28:56.224Z,28.54
2019-06-15T14:32:03.064Z,28.45
2019-06-15T14:35:09.726Z,28.49
2019-06-15T14:38:15.860Z,28.28
2019-06-15T14:41:21.987Z,28.21
2019-06-15T14:44:28.217Z,27.93
2019-06-15T14:47:34.433Z,27.71
2019-06-15T14:50:40.577Z,28.16
2019-06-15T14:53:55.560Z,28.10
2019-06-15T14:56:56.767Z,28.10
2019-06-15T15:00:05.855Z,27.64
2019-06-15T15:03:10.922Z,27.57
2019-06-15T15:06:17.343Z,27.63
2019-06-15T15:09:23.598Z,27.67
2019-06-15T15:12:33.248Z,27.90
2019-06-15T15:15:39.829Z,27.49
2019-06-15T15:18:46.448Z,27.77
2019-06-15T15:21:52.974Z,27.97
2019-06-15T15:25:00.799Z,27.85
2019-06-15T15:28:07.478Z,27.43
2019-06-15T15:31:16.899Z,27.88
2019-06-15T15:34:23.236Z,27.89
2019-06-15T15:37:31.036Z,27.59
2019-06-15T15:40:37.225Z,27.77
2019-06-15T15:43:46.103Z,27.72
2019-06-15T15:46:51.282Z,27.58
2019-06-15T15:49:59.161Z,27.30
2019-06-15T15:53:06.269Z,27.44
2019-06-15T15:56:12.383Z,27.50
2019-06-15T15:59:18.657Z,27.31
2019-06-15T16:02:41.703Z,26.66
2019-06-15T16:05:37.187Z,27.11
2019-06-15T16:08:46.698Z,27.25
2019-06-15T16:11:51.596Z,27.18
2019-06-15T16:14:57.693Z,26.84
2019-06-15T16:18:06.567Z,27.29
2019-06-15T16:21:12.089Z,26.80
2019-06-15T16:24:19.299Z,27.04
2019-06-15T16:27:26.566Z,27.07
2019-06-15T16:31:00.349Z,26.97
2019-06-15T16:33:46.438Z,26.97
2019-06-15T16:36:52.063Z,26.38
2019-06-15T16:39:58.168Z,26.74
2019-06-15T16:43:06.910Z,26.80
2019-06-15T16:46:12.377Z,26.90
2019-06-15T16:49:20.759Z,26.60
2019-06-15T16:52:27.026Z,26.20
2019-06-15T16:55:33.387Z,26.83
2019-06-15T16:58:39.651Z,26.77
2019-06-15T17:01:45.896Z,26.48
2019-06-15T17:04:51.999Z,26.51
2019-06-15T17:07:58.205Z,26.48
2019-06-15T17:11:06.724Z,26.79
2019-06-15T17:14:13.176Z,26.31
2019-06-15T17:17:19.314Z,26.22
2019-06-15T17:20:31.056Z,25.70
2019-06-15T17:23:37.227Z,25.72
2019-06-15T17:26:43.382Z,26.25
2019-06-15T17:29:49.474Z,25.51
2019-06-15T17:32:56.698Z,26.03
2019-06-15T17:36:03.549Z,25.78
2019-06-15T17:39:09.936Z,25.73
2019-06-15T17:42:16.476Z,25.40
2019-06-15T17:45:22.923Z,25.57
2019-06-15T17:48:29.067Z,25.50
2019-06-15T17:51:36.793Z,25.30
2019-06-15T17:54:46.488Z,24.74
2019-06-15T17:57:52.083Z,25.19
2019-06-15T18:00:58.159Z,24.75
2019-06-15T18:04:07.541Z,24.85
2019-06-15T18:07:12.595Z,24.76
2019-06-15T18:10:20.148Z,24.83
2019-06-15T18:13:26.387Z,25.04
2019-06-15T18:16:32.916Z,25.03
2019-06-15T18:19:38.986Z,24.79
2019-06-15T18:22:46.904Z,24.64
2019-06-15T18:25:53.177Z,24.67
2019-06-15T18:28:59.367Z,24.53
2019-06-15T18:32:06.461Z,24.58
2019-06-15T18:35:12.804Z,24.24
2019-06-15T18:38:19.065Z,24.35
2019-06-15T18:41:27.632Z,24.34
2019-06-15T18:44:33.704Z,24.15
2019-06-15T18:47:40.948Z,24.07
2019-06-15T18:50:47.049Z,24.04
2019-06-15T18:53:53.173Z,24.13
2019-06-15T18:56:59.280Z,24.20
2019-06-15T19:00:07.309Z,23.97
2019-06-15T19:03:16.521Z,23.61
2019-06-15T19:06:22.698Z,23.81
2019-06-15T19:09:28.800Z,23.38
2019-06-15T19:12:35.211Z,23.27
2019-06-15T19:15:41.302Z,23.10
2019-06-15T19:18:47.440Z,22.97
2019-06-15T19:21:53.546Z,23.55
2019-06-15T19:25:00.308Z,23.51
2019-06-15T19:28:06.539Z,23.35
2019-06-15T19:31:12.733Z,23.54
2019-06-15T19:34:19.476Z,23.23
2019-06-15T19:37:26.151Z,23.37
2019-06-15T19:40:33.635Z,22.93
2019-06-15T19:43:40.385Z,23.13
2019-06-15T19:46:47.649Z,23.28
2019-06-15T19:49:56.853Z,22.48
2019-06-15T19:53:02.481Z,21.79
2019-06-15T19:56:08.862Z,21.94
2019-06-15T19:59:17.108Z,22.29
2019-06-15T20:02:23.608Z,22.59
2019-06-15T20:05:29.992Z,22.12
2019-06-15T20:08:36.498Z,22.09
2019-06-15T20:11:42.643Z,21.74
2019-06-15T20:15:13.101Z,22.33
2019-06-15T20:18:19.175Z,21.88
2019-06-15T20:21:25.607Z,21.62
2019-06-15T20:24:32.176Z,21.49
2019-06-15T20:27:39.247Z,21.52
2019-06-15T20:30:46.215Z,21.96
2019-06-15T20:33:52.876Z,21.46
2019-06-15T20:36:59.452Z,21.53
2019-06-15T20:40:07.231Z,21.66
2019-06-15T20:43:17.077Z,21.20
2019-06-15T20:46:26.297Z,21.50
2019-06-15T20:49:31.829Z,21.33
2019-06-15T20:52:38.201Z,21.77
2019-06-15T20:55:46.571Z,21.67
2019-06-15T20:58:52.740Z,20.93
2019-06-15T21:01:59.267Z,21.33
2019-06-15T21:05:09.725Z,21.39
2019-06-15T21:08:16.372Z,21.28
2019-06-15T21:11:26.380Z,21.38
2019-06-15T21:14:33.101Z,21.15
2019-06-15T21:17:39.480Z,20.77
2019-06-15T21:20:47.077Z,21.39
2019-06-15T21:23:53.804Z,20.87
2019-06-15T21:27:00.330Z,20.82
2019-06-15T21:30:08.992Z,20.43
2019-06-15T21:33:16.467Z,20.38
2019-06-15T21:36:22.947Z,20.39
2019-06-15T21:39:30.401Z,20.60
2019-06-15T21:42:36.944Z,20.79
2019-06-15T21:45:46.107Z,20.50
2019-06-15T21:48:51.734Z,20.64
2019-06-15T21:51:58.085Z,20.93
2019-06-15T21:55:06.989Z,20.16
2019-06-15T21:58:13.467Z,20.07
2019-06-15T22:01:37.462Z,20.13
2019-06-15T22:04:46.024Z,20.57
2019-06-15T22:07:51.737Z,20.36
2019-06-15T22:10:58.109Z,20.78
2019-06-15T22:14:06.333Z,20.79
2019-06-15T22:17:12.980Z,20.81
2019-06-15T22:20:19.484Z,20.65
2019-06-15T22:23:26.852Z,19.89
2019-06-15T22:26:33.392Z,20.13
2019-06-15T22:29:39.853Z,19.53
2019-06-15T22:32:47.313Z,19.49
2019-06-15T22:35:56.460Z,19.98
2019-06-15T22:39:02.627Z,19.77
2019-06-15T22:42:10.635Z,18.99
2019-06-15T22:45:18.122Z,19.50
2019-06-15T22:48:27.029Z,19.53
2019-06-15T22:51:32.663Z,18.37
2019-06-15T22:54:39.009Z,18.96
2019-06-15T22:57:46.105Z,18.74
2019-06-15T23:00:52.669Z,19.63
2019-06-15T23:03:59.168Z,19.57
2019-06-15T23:07:06.917Z,19.53
2019-06-15T23:10:16.505Z,19.51
2019-06-15T23:13:22.913Z,19.70
2019-06-15T23:16:29.316Z,19.13
2019-06-15T23:19:35.695Z,19.06
2019-06-15T23:22:42.321Z,19.36
2019-06-15T23:25:51.177Z,19.44
2019-06-15T23:28:57.642Z,18.71
2019-06-15T23:32:06.163Z,18.84
2019-06-15T23:35:13.084Z,18.89
2019-06-15T23:38:19.636Z,19.22
2019-06-15T23:41:27.299Z,19.21
2019-06-15T23:44:36.129Z,19.48
2019-06-15T23:47:42.896Z,19.22
2019-06-15T23:50:49.364Z,19.03
2019-06-15T23:53:57.124Z,18.49
2019-06-15T23:57:06.261Z,18.92
